Holly Ann — WDE9094 — position and weather

sailwx.info

Track history (hours):
 
Tides and Currents Weather Stations Pressure Air Temp Water Temp Dewpoint Dewpoint Depression Visibility Wind Speed Wind Dir Waves Ship Positions

Holly Ann

Owner: Manke Tug and Barge Co., Inc., Shelton, WA. More information available from US FCC via Universal Licensing System and Coast Guard Vessel Documentation Center.

Last reported at 2017-Aug-10 06:29 UTC. Time now 2017-Aug-21 12:12 UTC.
Position N 47°08' W 122°41'.
Warning: this ship's position is 11 days out of date.

; draft 4.5 m.

Type: Towing. MMSI: 367413350.

Date/timePositionNaut miles runAvg speedWind from/ knotsBaromVisibWave heightAir tempDewpointWater temp
2017-Aug-10 06:29N 47°08' W 122°41'4 8.2
2017-Aug-10 05:59N 47°11' W 122°39'4 7.7
2017-Aug-10 05:30N 47°14' W 122°35'3 6.2
2017-Aug-10 05:01N 47°17' W 122°33'3 6.9
2017-Aug-10 04:31N 47°20' W 122°33'4 8.1
2017-Aug-10 04:00N 47°24' W 122°32'4 8.0
2017-Aug-10 03:31N 47°28' W 122°31'4 8.7
2017-Aug-10 03:00N 47°32' W 122°28'5 9.0
2017-Aug-10 02:30N 47°36' W 122°24'3 5.4
2017-Aug-10 02:01N 47°34' W 122°21'1 1.7
2017-Aug-10 01:31N 47°33' W 122°21'0 0.0
2017-Aug-10 01:00N 47°33' W 122°21'0 0.0
2017-Aug-10 00:30N 47°33' W 122°21'0 0.0
2017-Aug-10 00:01N 47°33' W 122°21'0 0.0
2017-Aug-09 23:31N 47°33' W 122°21'0 0.0
2017-Aug-09 23:00N 47°33' W 122°21'0 0.0
2017-Aug-09 22:31N 47°33' W 122°21'0 0.0
2017-Aug-09 22:01N 47°33' W 122°21'2 4.3
2017-Aug-09 21:30N 47°35' W 122°21'0 0.2
2017-Aug-09 21:01N 47°35' W 122°21'0 0.0
2017-Aug-09 20:30N 47°35' W 122°21'0 0.0
2017-Aug-09 20:01N 47°35' W 122°21'2 0.7
2017-Aug-09 17:15N 47°33' W 122°21'1 2.1
2017-Aug-09 16:59N 47°33' W 122°20'0 0.0
2017-Aug-09 09:58N 47°33' W 122°20'1 2.4
2017-Aug-09 09:25N 47°34' W 122°21'2 4.3
2017-Aug-09 09:00N 47°36' W 122°22'3 5.7
2017-Aug-09 08:31N 47°34' W 122°26'4 7.9
2017-Aug-09 08:00N 47°31' W 122°29'4 8.3
2017-Aug-09 07:31N 47°27' W 122°31'4 8.1
2017-Aug-09 07:01N 47°23' W 122°32'5 8.8
2017-Aug-09 06:29N 47°18' W 122°33'4 9.3
2017-Aug-09 06:00N 47°14' W 122°35'4 8.1
2017-Aug-09 05:31N 47°11' W 122°39'  
2017-Aug-03 06:02N 47°12' W 122°37'1 7.8
2017-Aug-03 05:57N 47°13' W 122°36'4 8.3
2017-Aug-03 05:30N 47°16' W 122°33'4 8.4
2017-Aug-03 05:00N 47°20' W 122°33'4 8.5
2017-Aug-03 04:30N 47°24' W 122°32'4 8.5
2017-Aug-03 04:00N 47°28' W 122°31'4 8.2
2017-Aug-03 03:30N 47°32' W 122°28'4 8.6
2017-Aug-03 03:00N 47°36' W 122°24'3 5.5
2017-Aug-03 02:30N 47°34' W 122°21'1 2.7
2017-Aug-03 02:00N 47°33' W 122°20'0 0.0
2017-Aug-03 01:30N 47°33' W 122°20'0 0.0
2017-Aug-03 01:00N 47°33' W 122°20'0 0.0
2017-Aug-03 00:30N 47°33' W 122°20'0 0.0
2017-Aug-03 00:00N 47°33' W 122°20'0 0.0
2017-Aug-02 23:30N 47°33' W 122°20'0 0.0
2017-Aug-02 23:00N 47°33' W 122°20'0 0.0
2017-Aug-02 22:30N 47°33' W 122°20'0 0.0
2017-Aug-02 22:00N 47°33' W 122°20'0 0.0
2017-Aug-02 21:30N 47°33' W 122°20'0 0.0
2017-Aug-02 21:00N 47°33' W 122°20'0 0.0
2017-Aug-02 20:30N 47°33' W 122°20'0 0.0
2017-Aug-02 20:00N 47°33' W 122°20'0 0.0
2017-Aug-02 19:30N 47°33' W 122°20'0 0.0
2017-Aug-02 19:00N 47°33' W 122°20'0 0.0
2017-Aug-02 18:30N 47°33' W 122°20'0 0.0
2017-Aug-02 18:00N 47°33' W 122°20'0 0.0
2017-Aug-02 17:30N 47°33' W 122°20'0 0.0
2017-Aug-02 17:00N 47°33' W 122°20'0 0.0
2017-Aug-02 16:30N 47°33' W 122°20'0 0.0
2017-Aug-02 16:00N 47°33' W 122°20'0 0.0
2017-Aug-02 15:30N 47°33' W 122°20'0 0.0
2017-Aug-02 15:00N 47°33' W 122°20'0 0.0
2017-Aug-02 13:30N 47°33' W 122°20'0 0.0
2017-Aug-02 13:00N 47°33' W 122°20'0 0.0
2017-Aug-02 12:29N 47°33' W 122°20'0 0.0
2017-Aug-02 12:00N 47°33' W 122°20'0 0.0
2017-Aug-02 11:30N 47°33' W 122°20'0 0.0
2017-Aug-02 11:00N 47°33' W 122°20'0 0.0
2017-Aug-02 10:30N 47°33' W 122°20'0 0.0
2017-Aug-02 10:00N 47°33' W 122°20'0 0.0
2017-Aug-02 09:30N 47°33' W 122°20'0 0.0
2017-Aug-02 09:00N 47°33' W 122°20'0 0.0
2017-Aug-02 08:30N 47°33' W 122°20'0 0.0
2017-Aug-02 08:00N 47°33' W 122°20'0 0.0
2017-Aug-02 07:30N 47°33' W 122°20'0 0.0
2017-Aug-02 07:00N 47°33' W 122°20'0 0.0
2017-Aug-02 06:30N 47°33' W 122°20'0 0.0
2017-Aug-02 06:00N 47°33' W 122°20'0 0.0
2017-Aug-02 05:30N 47°33' W 122°20'0 0.0
2017-Aug-02 05:00N 47°33' W 122°20'0 0.0
2017-Aug-02 04:30N 47°33' W 122°20'0 0.0
2017-Aug-02 04:00N 47°33' W 122°20'0 0.0
2017-Aug-02 03:30N 47°33' W 122°20'0 0.0
2017-Aug-02 03:00N 47°33' W 122°20'0 0.0
2017-Aug-02 02:26N 47°33' W 122°20'0 0.0
2017-Aug-02 02:00N 47°33' W 122°20'  
Track history (hours):
 
Tides and Currents Weather Stations Pressure Air Temp Water Temp Dewpoint Dewpoint Depression Visibility Wind Speed Wind Dir Waves Ship Positions

Holly Ann

Owner: Manke Tug and Barge Co., Inc., Shelton, WA. More information available from US FCC via Universal Licensing System and Coast Guard Vessel Documentation Center.

Last reported at 2017-Aug-10 06:29 UTC. Time now 2017-Aug-21 12:12 UTC.
Position N 47°08' W 122°41'.
Warning: this ship's position is 11 days out of date.

; draft 4.5 m.

Type: Towing. MMSI: 367413350.

Date/timePositionNaut miles runAvg speedWind from/ knotsBaromVisibWave heightAir tempDewpointWater temp
2017-Aug-10 06:29N 47°08' W 122°41'4 8.2
2017-Aug-10 05:59N 47°11' W 122°39'4 7.7
2017-Aug-10 05:30N 47°14' W 122°35'3 6.2
2017-Aug-10 05:01N 47°17' W 122°33'3 6.9
2017-Aug-10 04:31N 47°20' W 122°33'4 8.1
2017-Aug-10 04:00N 47°24' W 122°32'4 8.0
2017-Aug-10 03:31N 47°28' W 122°31'4 8.7
2017-Aug-10 03:00N 47°32' W 122°28'5 9.0
2017-Aug-10 02:30N 47°36' W 122°24'3 5.4
2017-Aug-10 02:01N 47°34' W 122°21'1 1.7
2017-Aug-10 01:31N 47°33' W 122°21'0 0.0
2017-Aug-10 01:00N 47°33' W 122°21'0 0.0
2017-Aug-10 00:30N 47°33' W 122°21'0 0.0
2017-Aug-10 00:01N 47°33' W 122°21'0 0.0
2017-Aug-09 23:31N 47°33' W 122°21'0 0.0
2017-Aug-09 23:00N 47°33' W 122°21'0 0.0
2017-Aug-09 22:31N 47°33' W 122°21'0 0.0
2017-Aug-09 22:01N 47°33' W 122°21'2 4.3
2017-Aug-09 21:30N 47°35' W 122°21'0 0.2
2017-Aug-09 21:01N 47°35' W 122°21'0 0.0
2017-Aug-09 20:30N 47°35' W 122°21'0 0.0
2017-Aug-09 20:01N 47°35' W 122°21'2 0.7
2017-Aug-09 17:15N 47°33' W 122°21'1 2.1
2017-Aug-09 16:59N 47°33' W 122°20'0 0.0
2017-Aug-09 09:58N 47°33' W 122°20'1 2.4
2017-Aug-09 09:25N 47°34' W 122°21'2 4.3
2017-Aug-09 09:00N 47°36' W 122°22'3 5.7
2017-Aug-09 08:31N 47°34' W 122°26'4 7.9
2017-Aug-09 08:00N 47°31' W 122°29'4 8.3
2017-Aug-09 07:31N 47°27' W 122°31'4 8.1
2017-Aug-09 07:01N 47°23' W 122°32'5 8.8
2017-Aug-09 06:29N 47°18' W 122°33'4 9.3
2017-Aug-09 06:00N 47°14' W 122°35'4 8.1
2017-Aug-09 05:31N 47°11' W 122°39'  
2017-Aug-03 06:02N 47°12' W 122°37'1 7.8
2017-Aug-03 05:57N 47°13' W 122°36'4 8.3
2017-Aug-03 05:30N 47°16' W 122°33'4 8.4
2017-Aug-03 05:00N 47°20' W 122°33'4 8.5
2017-Aug-03 04:30N 47°24' W 122°32'4 8.5
2017-Aug-03 04:00N 47°28' W 122°31'4 8.2
2017-Aug-03 03:30N 47°32' W 122°28'4 8.6
2017-Aug-03 03:00N 47°36' W 122°24'3 5.5
2017-Aug-03 02:30N 47°34' W 122°21'1 2.7
2017-Aug-03 02:00N 47°33' W 122°20'0 0.0
2017-Aug-03 01:30N 47°33' W 122°20'0 0.0
2017-Aug-03 01:00N 47°33' W 122°20'0 0.0
2017-Aug-03 00:30N 47°33' W 122°20'0 0.0
2017-Aug-03 00:00N 47°33' W 122°20'0 0.0
2017-Aug-02 23:30N 47°33' W 122°20'0 0.0
2017-Aug-02 23:00N 47°33' W 122°20'0 0.0
2017-Aug-02 22:30N 47°33' W 122°20'0 0.0
2017-Aug-02 22:00N 47°33' W 122°20'0 0.0
2017-Aug-02 21:30N 47°33' W 122°20'0 0.0
2017-Aug-02 21:00N 47°33' W 122°20'0 0.0
2017-Aug-02 20:30N 47°33' W 122°20'0 0.0
2017-Aug-02 20:00N 47°33' W 122°20'0 0.0
2017-Aug-02 19:30N 47°33' W 122°20'0 0.0
2017-Aug-02 19:00N 47°33' W 122°20'0 0.0
2017-Aug-02 18:30N 47°33' W 122°20'0 0.0
2017-Aug-02 18:00N 47°33' W 122°20'0 0.0
2017-Aug-02 17:30N 47°33' W 122°20'0 0.0
2017-Aug-02 17:00N 47°33' W 122°20'0 0.0
2017-Aug-02 16:30N 47°33' W 122°20'0 0.0
2017-Aug-02 16:00N 47°33' W 122°20'0 0.0
2017-Aug-02 15:30N 47°33' W 122°20'0 0.0
2017-Aug-02 15:00N 47°33' W 122°20'0 0.0
2017-Aug-02 13:30N 47°33' W 122°20'0 0.0
2017-Aug-02 13:00N 47°33' W 122°20'0 0.0
2017-Aug-02 12:29N 47°33' W 122°20'0 0.0
2017-Aug-02 12:00N 47°33' W 122°20'0 0.0
2017-Aug-02 11:30N 47°33' W 122°20'0 0.0
2017-Aug-02 11:00N 47°33' W 122°20'0 0.0
2017-Aug-02 10:30N 47°33' W 122°20'0 0.0
2017-Aug-02 10:00N 47°33' W 122°20'0 0.0
2017-Aug-02 09:30N 47°33' W 122°20'0 0.0
2017-Aug-02 09:00N 47°33' W 122°20'0 0.0
2017-Aug-02 08:30N 47°33' W 122°20'0 0.0
2017-Aug-02 08:00N 47°33' W 122°20'0 0.0
2017-Aug-02 07:30N 47°33' W 122°20'0 0.0
2017-Aug-02 07:00N 47°33' W 122°20'0 0.0
2017-Aug-02 06:30N 47°33' W 122°20'0 0.0
2017-Aug-02 06:00N 47°33' W 122°20'0 0.0
2017-Aug-02 05:30N 47°33' W 122°20'0 0.0
2017-Aug-02 05:00N 47°33' W 122°20'0 0.0
2017-Aug-02 04:30N 47°33' W 122°20'0 0.0
2017-Aug-02 04:00N 47°33' W 122°20'0 0.0
2017-Aug-02 03:30N 47°33' W 122°20'0 0.0
2017-Aug-02 03:00N 47°33' W 122°20'0 0.0
2017-Aug-02 02:26N 47°33' W 122°20'0 0.0
2017-Aug-02 02:00N 47°33' W 122°20'  

Dump ship's entire track history